createdAt,value
2024-01-16T00:01:15.555Z,1.08
2024-01-16T00:03:45.510Z,1.08
2024-01-16T00:06:17.900Z,1.08
2024-01-16T00:08:47.734Z,1.08
2024-01-16T00:11:17.557Z,1.09
2024-01-16T00:13:47.370Z,1.10
2024-01-16T00:16:17.225Z,1.09
2024-01-16T00:18:47.488Z,1.10
2024-01-16T00:21:19.918Z,1.10
2024-01-16T00:23:49.793Z,1.08
2024-01-16T00:26:26.125Z,1.05
2024-01-16T00:28:55.927Z,1.04
2024-01-16T00:31:28.481Z,1.05
2024-01-16T00:33:58.662Z,1.06
2024-01-16T00:36:31.130Z,1.06
2024-01-16T00:39:00.977Z,1.07
2024-01-16T00:41:31.373Z,1.07
2024-01-16T00:44:01.224Z,1.08
2024-01-16T00:46:31.452Z,1.08
2024-01-16T00:49:01.328Z,1.08
2024-01-16T00:51:33.889Z,1.07
2024-01-16T00:54:03.936Z,1.09
2024-01-16T00:56:35.705Z,1.11
2024-01-16T00:59:05.480Z,1.11
2024-01-16T01:01:35.547Z,1.12
2024-01-16T01:04:05.611Z,1.13
2024-01-16T01:06:39.867Z,1.13
2024-01-16T01:09:12.945Z,1.11
2024-01-16T01:11:42.832Z,1.09
2024-01-16T01:14:12.881Z,1.09
2024-01-16T01:16:42.859Z,1.10
2024-01-16T01:19:14.127Z,1.10
2024-01-16T01:21:46.583Z,1.09
2024-01-16T01:24:16.366Z,1.07
2024-01-16T01:26:47.023Z,1.08
2024-01-16T01:29:16.895Z,1.10
2024-01-16T01:31:49.745Z,1.10
2024-01-16T01:34:19.874Z,1.12
2024-01-16T01:36:52.377Z,1.12
2024-01-16T01:39:22.111Z,1.12
2024-01-16T01:41:52.012Z,1.11
2024-01-16T01:44:22.071Z,1.10
2024-01-16T01:46:51.953Z,1.10
2024-01-16T01:49:21.733Z,1.12
2024-01-16T01:51:54.215Z,1.10
2024-01-16T01:54:24.239Z,1.11
2024-01-16T01:56:54.335Z,1.11
2024-01-16T01:59:25.541Z,1.09
2024-01-16T02:01:56.365Z,1.06
2024-01-16T02:04:26.475Z,1.06
2024-01-16T02:06:58.924Z,1.06
2024-01-16T02:09:28.681Z,1.05
2024-01-16T02:11:58.417Z,1.04
2024-01-16T02:14:28.442Z,1.07
2024-01-16T02:16:58.281Z,1.09
2024-01-16T02:19:28.506Z,1.09
2024-01-16T02:22:04.396Z,1.09
2024-01-16T02:24:36.784Z,1.09
2024-01-16T02:27:06.755Z,1.12
2024-01-16T02:29:38.477Z,1.12
2024-01-16T02:32:09.446Z,1.11
2024-01-16T02:34:39.541Z,1.11
2024-01-16T02:37:09.407Z,1.09
2024-01-16T02:39:41.805Z,1.08
2024-01-16T02:42:11.889Z,1.06
2024-01-16T02:44:41.714Z,1.03
2024-01-16T02:47:11.687Z,1.02
2024-01-16T02:49:41.711Z,1.00
2024-01-16T02:52:11.554Z,0.97
2024-01-16T02:54:43.995Z,0.94
2024-01-16T02:57:13.890Z,0.92
2024-01-16T02:59:43.840Z,0.92
2024-01-16T03:02:14.593Z,0.90
2024-01-16T03:04:45.651Z,0.92
2024-01-16T03:07:15.359Z,0.93
2024-01-16T03:09:47.703Z,0.95
2024-01-16T03:12:17.778Z,0.95
2024-01-16T03:14:47.712Z,0.95
2024-01-16T03:17:17.568Z,0.92
2024-01-16T03:19:47.817Z,0.87
2024-01-16T03:22:17.531Z,0.82
2024-01-16T03:24:49.957Z,0.79
2024-01-16T03:27:19.702Z,0.80
2024-01-16T03:29:49.647Z,0.79
2024-01-16T03:32:19.593Z,0.78
2024-01-16T03:34:49.499Z,0.76
2024-01-16T03:37:19.370Z,0.75
2024-01-16T03:39:51.773Z,0.72
2024-01-16T03:42:21.521Z,0.74
2024-01-16T03:44:51.275Z,0.74
2024-01-16T03:47:21.141Z,0.74
2024-01-16T03:49:51.016Z,0.74
2024-01-16T03:52:20.870Z,0.74
2024-01-16T03:54:53.212Z,0.76
2024-01-16T03:57:23.228Z,0.77
2024-01-16T03:59:53.249Z,0.80
2024-01-16T04:02:23.198Z,0.88
2024-01-16T04:04:52.980Z,0.96
2024-01-16T04:07:22.783Z,0.99
2024-01-16T04:09:55.113Z,1.05
2024-01-16T04:12:24.885Z,1.10
2024-01-16T04:14:54.822Z,1.12
2024-01-16T04:17:24.609Z,1.15
2024-01-16T04:19:54.491Z,1.17
2024-01-16T04:22:24.242Z,1.17
2024-01-16T04:24:56.772Z,1.18
2024-01-16T04:27:26.582Z,1.20
2024-01-16T04:29:56.461Z,1.23
2024-01-16T04:32:26.246Z,1.26
2024-01-16T04:34:56.029Z,1.30
2024-01-16T04:37:25.741Z,1.31
2024-01-16T04:39:59.238Z,1.32
2024-01-16T04:42:29.446Z,1.34
2024-01-16T04:44:59.762Z,1.36
2024-01-16T04:47:29.865Z,1.38
2024-01-16T04:50:00.181Z,1.38
2024-01-16T04:52:31.003Z,1.36
2024-01-16T04:55:03.342Z,1.34
2024-01-16T04:57:33.099Z,1.34
2024-01-16T05:00:08.320Z,1.33
2024-01-16T05:02:38.401Z,1.33
2024-01-16T05:05:10.196Z,1.37
2024-01-16T05:07:40.091Z,1.38
2024-01-16T05:10:13.947Z,1.39
2024-01-16T05:12:43.987Z,1.41
2024-01-16T05:15:15.731Z,1.40
2024-01-16T05:17:45.732Z,1.40
2024-01-16T05:20:16.264Z,1.39
2024-01-16T05:22:46.246Z,1.35
2024-01-16T05:25:19.699Z,1.34
2024-01-16T05:27:50.673Z,1.33
2024-01-16T05:30:20.644Z,1.31
2024-01-16T05:32:50.436Z,1.33
2024-01-16T05:35:21.757Z,1.34
2024-01-16T05:37:52.902Z,1.37
2024-01-16T05:40:26.372Z,1.38
2024-01-16T05:42:57.742Z,1.39
2024-01-16T05:45:27.514Z,1.40
2024-01-16T05:47:57.871Z,1.41
2024-01-16T05:50:28.031Z,1.42
2024-01-16T05:52:58.196Z,1.43
2024-01-16T05:55:33.414Z,1.43
2024-01-16T05:58:03.458Z,1.45
2024-01-16T06:00:35.168Z,1.47
2024-01-16T06:03:05.871Z,1.50
2024-01-16T06:05:35.894Z,1.51
2024-01-16T06:08:05.924Z,1.50
2024-01-16T06:10:38.383Z,1.52
2024-01-16T06:13:08.310Z,1.51
2024-01-16T06:15:38.360Z,1.51
2024-01-16T06:18:10.402Z,1.51
2024-01-16T06:20:40.350Z,1.52
2024-01-16T06:23:10.322Z,1.50
2024-01-16T06:25:49.863Z,1.49
2024-01-16T06:28:19.597Z,1.45
2024-01-16T06:30:49.799Z,1.41
2024-01-16T06:33:19.758Z,1.39
2024-01-16T06:35:53.911Z,1.38
2024-01-16T06:38:26.787Z,1.37
2024-01-16T06:40:59.348Z,1.36
2024-01-16T06:43:36.596Z,1.35
2024-01-16T06:46:06.881Z,1.34
2024-01-16T06:48:39.561Z,1.33
2024-01-16T06:51:11.792Z,1.31
2024-01-16T06:53:41.884Z,1.28
2024-01-16T06:56:14.232Z,1.28
2024-01-16T06:58:44.487Z,1.27
2024-01-16T07:01:15.558Z,1.28
2024-01-16T07:03:45.712Z,1.30
2024-01-16T07:06:15.888Z,1.34
2024-01-16T07:08:45.739Z,1.36
2024-01-16T07:11:18.565Z,1.38
2024-01-16T07:13:48.544Z,1.41
2024-01-16T07:16:18.352Z,1.43
2024-01-16T07:18:48.765Z,1.42
2024-01-16T07:21:22.454Z,1.42
2024-01-16T07:23:52.917Z,1.41
2024-01-16T07:26:26.200Z,1.40
2024-01-16T07:28:56.385Z,1.40
2024-01-16T07:31:26.124Z,1.38
2024-01-16T07:33:56.291Z,1.36
2024-01-16T07:36:26.356Z,1.35
2024-01-16T07:38:56.425Z,1.34
2024-01-16T07:41:28.877Z,1.34
2024-01-16T07:43:58.657Z,1.32
2024-01-16T07:46:28.613Z,1.30
2024-01-16T07:48:58.595Z,1.31
2024-01-16T07:51:28.370Z,1.33
2024-01-16T07:54:09.272Z,1.34
2024-01-16T07:56:42.316Z,1.36
2024-01-16T07:59:13.332Z,1.40
2024-01-16T08:01:43.146Z,1.42
2024-01-16T08:04:13.080Z,1.47
2024-01-16T08:07:01.035Z,1.52
2024-01-16T08:09:30.811Z,1.58
2024-01-16T08:12:03.901Z,1.62
2024-01-16T08:14:33.789Z,1.66
2024-01-16T08:17:03.628Z,1.68
2024-01-16T08:19:34.108Z,1.69
2024-01-16T08:22:09.293Z,1.68
2024-01-16T08:24:40.156Z,1.71
2024-01-16T08:27:12.613Z,1.73
2024-01-16T08:29:42.377Z,1.73
2024-01-16T08:32:12.759Z,1.73
2024-01-16T08:34:42.669Z,1.74
2024-01-16T08:37:12.944Z,1.79
2024-01-16T08:39:42.729Z,1.82
2024-01-16T08:42:15.714Z,1.84
2024-01-16T08:44:45.602Z,1.85
2024-01-16T08:47:15.533Z,1.86
2024-01-16T08:49:45.571Z,1.84
2024-01-16T08:52:15.370Z,1.84
2024-01-16T08:54:45.416Z,1.86
2024-01-16T08:57:18.427Z,1.92
2024-01-16T08:59:49.071Z,1.97
2024-01-16T09:02:19.028Z,2.02
2024-01-16T09:04:49.101Z,2.09
2024-01-16T09:07:19.958Z,2.14
2024-01-16T09:09:47.371Z,2.20
2024-01-16T09:12:19.857Z,2.25
2024-01-16T09:14:49.768Z,2.31
2024-01-16T09:17:19.572Z,2.40
2024-01-16T09:19:49.305Z,2.48
2024-01-16T09:22:19.411Z,2.51
2024-01-16T09:24:49.177Z,2.52
2024-01-16T09:27:21.550Z,2.54
2024-01-16T09:29:51.464Z,2.53
2024-01-16T09:32:21.388Z,2.50
2024-01-16T09:34:51.236Z,2.47
2024-01-16T09:37:21.182Z,2.46
2024-01-16T09:39:51.649Z,2.50
2024-01-16T09:42:24.167Z,2.52
2024-01-16T09:44:54.079Z,2.52
2024-01-16T09:47:24.128Z,2.51
2024-01-16T09:49:54.033Z,2.49
2024-01-16T09:52:23.846Z,2.41
2024-01-16T09:54:53.584Z,2.40
2024-01-16T09:57:29.321Z,2.39
2024-01-16T10:00:00.943Z,2.37
2024-01-16T10:02:31.059Z,2.38
2024-01-16T10:05:00.861Z,2.39
2024-01-16T10:07:31.166Z,2.41
2024-01-16T10:10:01.438Z,2.43
2024-01-16T10:12:34.741Z,2.44
2024-01-16T10:15:05.346Z,2.49
2024-01-16T10:17:42.259Z,2.54
2024-01-16T10:20:15.121Z,2.61
2024-01-16T10:22:46.609Z,2.67
2024-01-16T10:25:18.470Z,2.73
2024-01-16T10:27:51.144Z,2.75
2024-01-16T10:30:25.546Z,2.81
2024-01-16T10:32:55.978Z,2.86
2024-01-16T10:35:25.979Z,2.84
2024-01-16T10:37:57.295Z,2.82
2024-01-16T10:40:29.973Z,2.81
2024-01-16T10:43:07.178Z,2.79
2024-01-16T10:45:37.625Z,2.78
2024-01-16T10:48:09.287Z,2.79
2024-01-16T10:50:41.848Z,2.77
2024-01-16T10:53:12.349Z,2.75
2024-01-16T10:55:47.832Z,2.74
2024-01-16T10:58:20.586Z,2.72
2024-01-16T11:00:52.362Z,2.72
2024-01-16T11:03:24.105Z,2.77
2024-01-16T11:05:54.797Z,2.86
2024-01-16T11:08:28.658Z,2.96
2024-01-16T11:10:58.463Z,3.10
2024-01-16T11:13:31.029Z,3.18
2024-01-16T11:16:02.124Z,3.17
2024-01-16T11:18:34.792Z,3.16
2024-01-16T11:21:08.550Z,3.16
2024-01-16T11:23:41.090Z,3.16
2024-01-16T11:26:29.441Z,3.16
2024-01-16T11:29:02.515Z,3.11
2024-01-16T11:31:33.770Z,3.10
2024-01-16T11:35:02.404Z,3.13
2024-01-16T11:37:47.200Z,3.15
2024-01-16T11:40:35.566Z,3.20
2024-01-16T11:43:51.283Z,3.26
2024-01-16T11:47:01.546Z,3.31
2024-01-16T11:53:16.679Z,3.30
2024-01-16T11:57:10.054Z,3.26
2024-01-16T12:08:01.944Z,3.19
2024-01-16T12:11:43.397Z,3.17
2024-01-16T12:29:34.290Z,2.44
2024-01-16T12:32:12.935Z,2.34
2024-01-16T12:34:51.268Z,2.23
2024-01-16T12:37:21.956Z,2.12
2024-01-16T12:39:53.468Z,2.11
2024-01-16T12:42:25.714Z,2.13
2024-01-16T12:45:00.861Z,2.13
2024-01-16T12:47:34.966Z,2.12
2024-01-16T12:50:05.266Z,2.08
2024-01-16T12:52:39.157Z,1.99
2024-01-16T13:14:37.295Z,1.46
2024-01-16T13:18:25.395Z,1.45
2024-01-16T13:21:21.989Z,1.47
2024-01-16T13:23:55.295Z,1.50
2024-01-16T13:26:41.460Z,1.52
2024-01-16T13:29:32.504Z,1.60
2024-01-16T13:33:00.391Z,1.66
2024-01-16T13:36:46.522Z,1.67
2024-01-16T13:39:58.003Z,1.67
2024-01-16T13:43:16.489Z,1.70
2024-01-16T13:46:49.843Z,1.72
2024-01-16T13:49:56.697Z,1.77
2024-01-16T13:52:28.740Z,1.83
2024-01-16T13:55:04.041Z,1.95
2024-01-16T13:57:37.641Z,2.10
2024-01-16T14:00:08.680Z,2.26
2024-01-16T14:02:44.971Z,2.40
2024-01-16T14:05:17.010Z,2.52
2024-01-16T14:07:47.448Z,2.60
2024-01-16T14:10:20.043Z,2.66
2024-01-16T14:12:51.431Z,2.71
2024-01-16T14:15:25.227Z,2.72
2024-01-16T14:17:56.746Z,2.72
2024-01-16T14:20:28.913Z,2.74
2024-01-16T14:22:59.454Z,2.75
2024-01-16T14:25:33.122Z,2.73
2024-01-16T14:28:04.964Z,2.68
2024-01-16T14:30:38.931Z,2.58
2024-01-16T14:33:10.224Z,2.39
2024-01-16T14:35:40.054Z,2.22
2024-01-16T14:38:09.871Z,2.08
2024-01-16T14:40:42.212Z,2.00
2024-01-16T14:43:11.991Z,1.99
2024-01-16T14:45:41.964Z,1.94
2024-01-16T14:48:12.809Z,1.86
2024-01-16T14:50:42.760Z,1.72
2024-01-16T14:53:12.615Z,1.57
2024-01-16T14:55:45.018Z,1.42
2024-01-16T14:58:14.829Z,1.28
2024-01-16T15:00:46.979Z,1.16
2024-01-16T15:03:19.593Z,1.06
2024-01-16T15:05:50.692Z,0.94
2024-01-16T15:08:20.588Z,0.86
2024-01-16T15:10:53.013Z,0.75
2024-01-16T15:13:24.360Z,0.67
2024-01-16T15:15:55.696Z,0.59
2024-01-16T15:18:25.626Z,0.49
2024-01-16T15:20:56.882Z,0.40
2024-01-16T15:23:27.005Z,0.33
2024-01-16T15:26:04.136Z,0.26
2024-01-16T15:28:34.509Z,0.17
2024-01-16T15:31:08.554Z,0.09
2024-01-16T15:33:39.117Z,0.02
2024-01-16T15:36:10.341Z,-0.06
2024-01-16T15:38:40.137Z,-0.13
2024-01-16T15:41:12.536Z,-0.21
2024-01-16T15:43:42.540Z,-0.27
2024-01-16T15:46:12.286Z,-0.31
2024-01-16T15:48:44.115Z,-0.31
2024-01-16T15:51:14.401Z,-0.27
2024-01-16T15:53:44.701Z,-0.20
2024-01-16T15:56:17.469Z,-0.15
2024-01-16T15:58:47.281Z,-0.14
2024-01-16T16:01:17.197Z,-0.20
2024-01-16T16:03:48.123Z,-0.27
2024-01-16T16:06:18.404Z,-0.36
2024-01-16T16:08:48.362Z,-0.44
2024-01-16T16:11:20.933Z,-0.52
2024-01-16T16:13:50.741Z,-0.57
2024-01-16T16:16:20.619Z,-0.60
2024-01-16T16:18:50.533Z,-0.63
2024-01-16T16:21:20.357Z,-0.67
2024-01-16T16:23:50.345Z,-0.71
2024-01-16T16:26:33.544Z,-0.75
2024-01-16T16:29:04.611Z,-0.80
2024-01-16T16:31:35.432Z,-0.87
2024-01-16T16:34:11.622Z,-0.95
2024-01-16T16:36:43.007Z,-1.03
2024-01-16T16:39:14.361Z,-1.10
2024-01-16T16:41:48.033Z,-1.16
2024-01-16T16:44:18.376Z,-1.22
2024-01-16T16:46:48.280Z,-1.28
2024-01-16T16:49:18.199Z,-1.33
2024-01-16T16:51:48.867Z,-1.38
2024-01-16T16:54:18.811Z,-1.42
2024-01-16T16:56:52.565Z,-1.46
2024-01-16T16:59:22.442Z,-1.51
2024-01-16T17:01:53.403Z,-1.58
2024-01-16T17:04:23.898Z,-1.62
2024-01-16T17:06:56.709Z,-1.67
2024-01-16T17:09:27.108Z,-1.71
2024-01-16T17:11:59.829Z,-1.73
2024-01-16T17:14:29.612Z,-1.77
2024-01-16T17:16:59.539Z,-1.82
2024-01-16T17:19:29.386Z,-1.85
2024-01-16T17:22:00.175Z,-1.88
2024-01-16T17:24:30.461Z,-1.91
2024-01-16T17:27:03.323Z,-1.93
2024-01-16T17:29:33.220Z,-1.93
2024-01-16T17:32:04.412Z,-1.95
2024-01-16T17:34:35.457Z,-1.99
2024-01-16T17:37:05.235Z,-2.02
2024-01-16T17:39:36.404Z,-2.05
2024-01-16T17:42:10.364Z,-2.11
2024-01-16T17:44:50.369Z,-2.17
2024-01-16T17:47:22.377Z,-2.21
2024-01-16T17:49:52.335Z,-2.23
2024-01-16T17:52:24.342Z,-2.24
2024-01-16T17:54:54.248Z,-2.26
2024-01-16T17:57:26.824Z,-2.28
2024-01-16T17:59:56.705Z,-2.31
2024-01-16T18:02:26.646Z,-2.32
2024-01-16T18:04:56.398Z,-2.34
2024-01-16T18:07:26.148Z,-2.38
2024-01-16T18:09:55.949Z,-2.41
2024-01-16T18:12:28.645Z,-2.44
2024-01-16T18:15:01.085Z,-2.46
2024-01-16T18:17:31.414Z,-2.44
2024-01-16T18:20:01.515Z,-2.43
2024-01-16T18:22:34.457Z,-2.42
2024-01-16T18:25:06.724Z,-2.40
2024-01-16T18:27:40.034Z,-2.38
2024-01-16T18:30:13.189Z,-2.37
2024-01-16T18:32:43.823Z,-2.38
2024-01-16T18:35:13.904Z,-2.40
2024-01-16T18:37:44.000Z,-2.43
2024-01-16T18:40:17.056Z,-2.46
2024-01-16T18:42:49.408Z,-2.48
2024-01-16T18:45:20.160Z,-2.51
2024-01-16T18:47:52.022Z,-2.54
2024-01-16T18:50:22.322Z,-2.58
2024-01-16T18:52:53.114Z,-2.61
2024-01-16T18:55:22.847Z,-2.67
2024-01-16T18:58:00.970Z,-2.70
2024-01-16T19:00:30.865Z,-2.74
2024-01-16T19:03:01.116Z,-2.75
2024-01-16T19:05:35.951Z,-2.80
2024-01-16T19:08:05.921Z,-2.84
2024-01-16T19:10:35.770Z,-2.85
2024-01-16T19:13:08.180Z,-2.88
2024-01-16T19:15:37.991Z,-2.91
2024-01-16T19:18:08.836Z,-2.95
2024-01-16T19:20:38.829Z,-2.97
2024-01-16T19:23:08.737Z,-3.00
2024-01-16T19:25:38.503Z,-3.06
2024-01-16T19:28:10.905Z,-3.09
2024-01-16T19:30:40.849Z,-3.13
2024-01-16T19:33:11.225Z,-3.17
2024-01-16T19:35:41.146Z,-3.18
2024-01-16T19:38:10.933Z,-3.19
2024-01-16T19:40:40.743Z,-3.21
2024-01-16T19:43:13.518Z,-3.22
2024-01-16T19:45:43.508Z,-3.26
2024-01-16T19:48:14.530Z,-3.29
2024-01-16T19:50:47.095Z,-3.31
2024-01-16T19:53:17.786Z,-3.34
2024-01-16T19:55:47.742Z,-3.34
2024-01-16T19:58:20.067Z,-3.37
2024-01-16T20:00:50.048Z,-3.38
2024-01-16T20:03:20.030Z,-3.39
2024-01-16T20:05:49.895Z,-3.38
2024-01-16T20:08:19.756Z,-3.38
2024-01-16T20:10:49.721Z,-3.40
2024-01-16T20:13:22.184Z,-3.39
2024-01-16T20:15:55.180Z,-3.42
2024-01-16T20:18:25.155Z,-3.43
2024-01-16T20:20:55.168Z,-3.44
2024-01-16T20:23:25.598Z,-3.44
2024-01-16T20:25:55.514Z,-3.48
2024-01-16T20:28:27.992Z,-3.50
2024-01-16T20:30:57.973Z,-3.50
2024-01-16T20:33:28.061Z,-3.52
2024-01-16T20:35:58.177Z,-3.55
2024-01-16T20:38:28.078Z,-3.57
2024-01-16T20:40:57.964Z,-3.60
2024-01-16T20:43:30.457Z,-3.63
2024-01-16T20:46:02.207Z,-3.67
2024-01-16T20:48:33.098Z,-3.70
2024-01-16T20:51:03.764Z,-3.71
2024-01-16T20:53:33.605Z,-3.69
2024-01-16T20:56:03.498Z,-3.69
2024-01-16T20:58:36.809Z,-3.68
2024-01-16T21:01:08.757Z,-3.68
2024-01-16T21:03:38.753Z,-3.68
2024-01-16T21:06:10.527Z,-3.68
2024-01-16T21:08:40.816Z,-3.68
2024-01-16T21:11:10.724Z,-3.66
2024-01-16T21:13:43.435Z,-3.63
2024-01-16T21:16:13.697Z,-3.61
2024-01-16T21:18:44.969Z,-3.60
2024-01-16T21:21:15.221Z,-3.60
2024-01-16T21:23:45.716Z,-3.61
2024-01-16T21:26:15.500Z,-3.63
2024-01-16T21:28:47.851Z,-3.63
2024-01-16T21:31:17.955Z,-3.64
2024-01-16T21:33:48.043Z,-3.67
2024-01-16T21:36:17.909Z,-3.69
2024-01-16T21:38:48.040Z,-3.70
2024-01-16T21:41:17.794Z,-3.71
2024-01-16T21:43:50.172Z,-3.71
2024-01-16T21:46:22.745Z,-3.71
2024-01-16T21:48:52.692Z,-3.74
2024-01-16T21:51:23.627Z,-3.75
2024-01-16T21:53:53.889Z,-3.75
2024-01-16T21:56:23.902Z,-3.77
2024-01-16T21:58:53.755Z,-3.78
2024-01-16T22:01:23.599Z,-3.80
2024-01-16T22:03:53.346Z,-3.80
2024-01-16T22:06:24.355Z,-3.82
2024-01-16T22:08:55.507Z,-3.84
2024-01-16T22:11:25.362Z,-3.85
2024-01-16T22:13:57.982Z,-3.87
2024-01-16T22:16:28.396Z,-3.89
2024-01-16T22:18:58.510Z,-3.90
2024-01-16T22:21:28.381Z,-3.92
2024-01-16T22:23:58.267Z,-3.95
2024-01-16T22:26:28.529Z,-3.99
2024-01-16T22:29:01.220Z,-4.02
2024-01-16T22:31:34.454Z,-4.06
2024-01-16T22:34:04.610Z,-4.08
2024-01-16T22:36:34.717Z,-4.12
2024-01-16T22:39:04.669Z,-4.15
2024-01-16T22:41:36.212Z,-4.17
2024-01-16T22:44:08.643Z,-4.19
2024-01-16T22:46:38.467Z,-4.20
2024-01-16T22:49:08.412Z,-4.22
2024-01-16T22:51:39.826Z,-4.23
2024-01-16T22:54:11.047Z,-4.27
2024-01-16T22:56:41.981Z,-4.31
2024-01-16T22:59:14.727Z,-4.34
2024-01-16T23:01:45.171Z,-4.36
2024-01-16T23:04:15.007Z,-4.36
2024-01-16T23:06:44.867Z,-4.37
2024-01-16T23:09:14.645Z,-4.38
2024-01-16T23:11:44.858Z,-4.39
2024-01-16T23:14:17.399Z,-4.39
2024-01-16T23:16:47.160Z,-4.40
2024-01-16T23:19:17.065Z,-4.39
2024-01-16T23:21:50.589Z,-4.42
2024-01-16T23:24:20.359Z,-4.44
2024-01-16T23:26:52.950Z,-4.44
2024-01-16T23:29:25.889Z,-4.44
2024-01-16T23:31:55.760Z,-4.44
2024-01-16T23:34:26.010Z,-4.44
2024-01-16T23:36:55.921Z,-4.44
2024-01-16T23:39:26.940Z,-4.45
2024-01-16T23:41:57.787Z,-4.44
2024-01-16T23:44:30.805Z,-4.43
2024-01-16T23:47:01.084Z,-4.44
2024-01-16T23:49:30.970Z,-4.44
2024-01-16T23:52:00.777Z,-4.43
2024-01-16T23:54:30.642Z,-4.43
2024-01-16T23:57:00.650Z,-4.43
2024-01-16T23:59:33.222Z,-4.42
